VYYY/RGN METAR and TAF weather

Enter ICAO airport designator
Station Type Date Time Source
VYYY METAR 2020/07/05 03:30 UTC NOAA

VYYY 050330Z 18010KT 7000 BKN015 FEW025CB BKN100 29/26 Q1008


Station Type Date Time Source
VYYY Decoded METAR 2020/07/05 03:30 UTC NOAA

Yangon, Myanmar (VYYY) 16-46N 096-10E 15M
Jul 04, 2020 - 11:30 PM EDT / 2020.07.05 0330 UTC
Wind: from the S (180 degrees) at 12 MPH (10 KT):0
Visibility: 4 mile(s):0
Sky conditions: mostly cloudy
Weather: Cumulonimbus clouds observed
Temperature: 84 F (29 C)
Dew Point: 78 F (26 C)
Relative Humidity: 83%
Pressure (altimeter): 29.77 in. Hg (1008 hPa)
ob: VYYY 050330Z 18010KT 7000 BKN015 FEW025CB BKN100 29/26 Q1008
cycle: 3

Station Type Date Time Source
VYYY TAF 2020/07/04 18:39 UTC NOAA

TAF TAF VYYY 041700Z 0418/0518 20006KT 7000 BKN014 FEW020CB BKN090
TEMPO 0418/0424 23008KT 4000 RA BKN012 FEW016CB OVC090
TEMPO 0500/0506 3000 RA BKN010 FEW016CB OVC080
TEMPO 0506/0512 21008KT 5000 -RA

Example: see airport list